Time;durP1;ratioP1;P1;durP2;ratioP2;P2;SDS_P1;SDS_P2;PMS_P1;PMS_P2;Temp;Humidity;BMP_temperature;BMP_pressure;BME280_temperature;BME280_humidity;BME280_pressure;Samples;Min_cycle;Max_cycle;Signal;HPM_P1;HPM_P2
2022/02/26 00:01:10;;;;;;;47.27;21.68;;;;;;;1.28;100.00;100075.81;1678399;84;21289;-84
2022/02/26 00:04:17;;;;;;;39.95;17.82;;;;;;;1.26;100.00;100071.88;1678058;85;21865;-83
2022/02/26 00:07:24;;;;;;;50.92;23.57;;;;;;;1.26;100.00;100067.83;1677579;84;21292;-76
2022/02/26 00:10:29;;;;;;;55.63;24.57;;;;;;;1.26;100.00;100074.56;1678305;85;21298;-85
2022/02/26 00:13:35;;;;;;;76.25;22.95;;;;;;;1.28;100.00;100083.89;1678516;85;21865;-76
2022/02/26 00:16:39;;;;;;;36.38;19.02;;;;;;;1.27;100.00;100085.73;1678328;84;21331;-76
2022/02/26 00:19:45;;;;;;;49.67;21.25;;;;;;;1.25;100.00;100075.55;1677641;85;21224;-84
2022/02/26 00:22:43;;;;;;;53.75;23.02;;;;;;;1.25;100.00;100082.30;1677127;84;21346;-76
2022/02/26 00:25:48;;;;;;;42.62;19.80;;;;;;;1.23;100.00;100082.92;1678450;85;21287;-76
2022/02/26 00:28:54;;;;;;;63.90;23.92;;;;;;;1.22;100.00;100078.52;1678139;85;21749;-84
2022/02/26 00:32:00;;;;;;;41.68;20.37;;;;;;;1.23;100.00;100084.27;1678058;84;21319;-76
2022/02/26 00:35:05;;;;;;;57.38;24.15;;;;;;;1.24;100.00;100076.55;1677391;85;21327;-77
2022/02/26 00:38:10;;;;;;;40.60;20.20;;;;;;;1.25;100.00;100079.59;1677250;84;21856;-84
2022/02/26 00:41:17;;;;;;;59.50;23.95;;;;;;;1.27;100.00;100082.16;1678359;84;21861;-77
2022/02/26 00:44:22;;;;;;;38.70;20.43;;;;;;;1.25;100.00;100086.33;1678378;85;21327;-84
2022/02/26 00:47:29;;;;;;;31.57;16.75;;;;;;;1.25;100.00;100078.74;1677753;84;21327;-84
2022/02/26 00:50:34;;;;;;;61.83;26.62;;;;;;;1.23;100.00;100082.06;1679188;83;21382;-77
2022/02/26 00:53:43;;;;;;;40.40;21.93;;;;;;;1.20;100.00;100081.80;1678410;85;21739;-76
2022/02/26 00:56:48;;;;;;;55.10;25.40;;;;;;;1.22;100.00;100084.36;1678095;84;21327;-85
2022/02/26 00:59:54;;;;;;;43.40;23.70;;;;;;;1.21;100.00;100067.34;1678289;85;21315;-77
2022/02/26 01:03:00;;;;;;;43.20;23.52;;;;;;;1.22;100.00;100071.78;1677375;84;21335;-77
2022/02/26 01:06:06;;;;;;;44.23;23.67;;;;;;;1.19;100.00;100074.70;1677358;84;21371;-77
2022/02/26 01:09:12;;;;;;;45.00;23.65;;;;;;;1.17;100.00;100077.99;1678336;85;21346;-76
2022/02/26 01:12:17;;;;;;;53.50;23.32;;;;;;;1.19;100.00;100072.02;1677841;84;21240;-76
2022/02/26 01:15:22;;;;;;;50.55;25.23;;;;;;;1.22;100.00;100076.28;1678335;85;21880;-84
2022/02/26 01:18:28;;;;;;;48.87;24.77;;;;;;;1.25;100.00;100078.74;1677095;84;21323;-83
2022/02/26 01:21:34;;;;;;;40.20;21.15;;;;;;;1.27;100.00;100089.78;1677331;84;21300;-84
2022/02/26 01:24:41;;;;;;;40.83;21.97;;;;;;;1.30;100.00;100084.62;1678424;85;21225;-85
2022/02/26 01:27:46;;;;;;;41.65;23.25;;;;;;;1.31;100.00;100090.37;1677606;84;21299;-76
2022/02/26 01:30:53;;;;;;;39.20;20.85;;;;;;;1.33;100.00;100084.38;1678373;85;21169;-84
2022/02/26 01:33:58;;;;;;;46.77;23.02;;;;;;;1.32;100.00;100089.41;1678271;85;21283;-76
2022/02/26 01:37:04;;;;;;;36.65;20.00;;;;;;;1.32;100.00;100084.48;1677316;84;21224;-84
2022/02/26 01:40:10;;;;;;;44.45;20.77;;;;;;;1.33;100.00;100094.31;1678350;85;21288;-75
2022/02/26 01:43:16;;;;;;;41.10;21.82;;;;;;;1.32;100.00;100083.14;1678448;84;21241;-84
2022/02/26 01:46:21;;;;;;;45.15;23.52;;;;;;;1.34;100.00;100087.93;1678466;84;21169;-76
2022/02/26 01:49:26;;;;;;;48.58;23.18;;;;;;;1.33;100.00;100082.19;1678276;85;21339;-82
2022/02/26 01:52:31;;;;;;;49.88;23.55;;;;;;;1.34;100.00;100077.16;1678953;84;21323;-76
2022/02/26 01:55:37;;;;;;;46.40;21.45;;;;;;;1.34;100.00;100086.09;1678430;85;21303;-76
2022/02/26 01:58:43;;;;;;;50.00;23.00;;;;;;;1.35;100.00;100079.72;1677803;85;21809;-76
2022/02/26 02:01:50;;;;;;;53.73;23.45;;;;;;;1.35;100.00;100079.72;1658842;84;21220;-76
2022/02/26 02:04:55;;;;;;;48.60;21.57;;;;;;;1.36;100.00;100079.22;1676987;85;21335;-76
2022/02/26 02:08:00;;;;;;;49.70;21.52;;;;;;;1.36;100.00;100081.92;1677204;84;21241;-76
2022/02/26 02:11:06;;;;;;;43.20;19.95;;;;;;;1.35;100.00;100089.64;1678317;84;21295;-81
2022/02/26 02:14:12;;;;;;;40.80;18.75;;;;;;;1.32;100.00;100092.11;1678282;85;21866;-76
2022/02/26 02:17:21;;;;;;;37.90;18.87;;;;;;;1.32;100.00;100091.22;1677728;84;21237;-76
2022/02/26 02:20:25;;;;;;;33.08;17.87;;;;;;;1.26;100.00;100086.70;1676999;85;21296;-85
2022/02/26 02:23:31;;;;;;;36.33;19.35;;;;;;;1.23;100.00;100088.30;1676951;84;21387;-75
2022/02/26 02:26:37;;;;;;;36.40;18.90;;;;;;;1.24;100.00;100090.02;1677065;84;22274;-84
2022/02/26 02:29:44;;;;;;;34.25;18.00;;;;;;;1.23;100.00;100085.61;1677128;85;21240;-76
2022/02/26 02:32:49;;;;;;;27.77;17.25;;;;;;;1.23;100.00;100096.88;1678461;84;21320;-84
2022/02/26 02:35:54;;;;;;;28.85;16.52;;;;;;;1.22;100.00;100104.57;1678447;85;21292;-79
2022/02/26 02:38:59;;;;;;;26.40;15.10;;;;;;;1.21;100.00;100102.86;1678353;85;21352;-82
2022/02/26 02:42:05;;;;;;;25.77;14.87;;;;;;;1.21;100.00;100119.03;1677845;84;21972;-76
2022/02/26 02:45:11;;;;;;;23.73;14.60;;;;;;;1.19;100.00;100120.51;1678332;85;21351;-84
2022/02/26 02:48:16;;;;;;;30.30;16.35;;;;;;;1.19;100.00;100128.59;1676874;84;21362;-76
2022/02/26 02:51:22;;;;;;;25.68;16.12;;;;;;;1.17;100.00;100130.53;1677004;84;21291;-84
2022/02/26 02:54:27;;;;;;;24.77;15.18;;;;;;;1.15;100.00;100133.84;1678505;84;21378;-84
2022/02/26 02:57:33;;;;;;;34.55;19.32;;;;;;;1.14;100.00;100140.72;1677577;84;21364;-84
2022/02/26 03:00:39;;;;;;;33.53;19.82;;;;;;;1.09;100.00;100141.56;1677222;85;21204;-84
2022/02/26 03:03:46;;;;;;;28.38;18.37;;;;;;;1.04;100.00;100136.53;1678342;85;21295;-83
2022/02/26 03:06:52;;;;;;;37.90;21.62;;;;;;;1.00;100.00;100131.87;1677953;84;21315;-83
2022/02/26 03:09:57;;;;;;;38.17;20.77;;;;;;;0.98;100.00;100133.80;1676990;85;21261;-76
2022/02/26 03:13:03;;;;;;;44.27;21.90;;;;;;;0.95;100.00;100138.11;1677401;84;21797;-84
2022/02/26 03:16:09;;;;;;;42.25;22.95;;;;;;;0.94;100.00;100138.20;1678315;84;21352;-84
2022/02/26 03:19:16;;;;;;;41.10;22.52;;;;;;;0.92;100.00;100134.78;1678091;85;21304;-76
2022/02/26 03:22:21;;;;;;;38.35;21.90;;;;;;;0.90;100.00;100138.95;1677050;84;21300;-76
2022/02/26 03:25:27;;;;;;;39.65;22.05;;;;;;;0.91;100.00;100133.93;1678375;85;21360;-84
2022/02/26 03:28:32;;;;;;;40.40;21.87;;;;;;;0.95;100.00;100132.72;1678355;85;21307;-76
2022/02/26 03:31:39;;;;;;;34.58;20.08;;;;;;;0.94;100.00;100138.20;1678256;84;21342;-76
2022/02/26 03:34:44;;;;;;;46.33;23.57;;;;;;;0.94;100.00;100130.12;1678426;85;21292;-84
2022/02/26 03:37:50;;;;;;;36.60;22.27;;;;;;;0.97;100.00;100127.20;1677689;84;21300;-76
2022/02/26 03:40:54;;;;;;;38.70;23.20;;;;;;;0.96;100.00;100129.53;1678447;85;21289;-81
2022/02/26 03:44:00;;;;;;;36.98;22.45;;;;;;;0.96;100.00;100125.00;1678520;85;21224;-79
2022/02/26 03:47:07;;;;;;;38.83;23.15;;;;;;;0.99;100.00;100132.00;1677926;84;21363;-84
2022/02/26 03:50:14;;;;;;;37.33;21.82;;;;;;;0.99;100.00;100134.69;1677791;85;21599;-84
2022/02/26 03:53:19;;;;;;;38.67;23.15;;;;;;;0.98;100.00;100135.16;1678335;84;21185;-84
2022/02/26 03:56:24;;;;;;;36.15;21.35;;;;;;;0.98;100.00;100134.30;1687841;83;21882;-77
2022/02/26 03:59:29;;;;;;;38.90;22.95;;;;;;;1.01;100.00;100125.99;1688161;85;21820;-83
2022/02/26 04:02:34;;;;;;;37.65;21.77;;;;;;;1.06;100.00;100134.56;1687988;83;21376;-76
2022/02/26 04:05:33;;;;;;;37.78;22.48;;;;;;;1.07;100.00;100138.97;1688075;85;21283;-76
2022/02/26 04:08:37;;;;;;;36.88;23.30;;;;;;;1.11;100.00;100148.53;1687977;85;21337;-80
2022/02/26 04:11:42;;;;;;;35.10;20.35;;;;;;;1.12;100.00;100165.06;1687739;84;21318;-84
2022/02/26 04:14:47;;;;;;;33.28;21.27;;;;;;;1.14;100.00;100161.77;1688112;85;21290;-76
2022/02/26 04:17:53;;;;;;;35.65;22.30;;;;;;;1.14;100.00;100174.39;1686606;84;21236;-84
2022/02/26 04:20:58;;;;;;;37.38;23.60;;;;;;;1.16;100.00;100175.11;1688042;85;21165;-76
2022/02/26 04:24:04;;;;;;;36.75;23.38;;;;;;;1.14;100.00;100180.63;1687320;85;21268;-76
2022/02/26 04:27:13;;;;;;;42.25;24.57;;;;;;;1.13;100.00;100191.05;1687511;83;21713;-76
2022/02/26 04:30:22;;;;;;;39.38;24.63;;;;;;;1.12;100.00;100189.30;1686544;85;21188;-84
2022/02/26 04:33:28;;;;;;;41.68;25.43;;;;;;;1.10;100.00;100193.97;1686483;83;21387;-84
2022/02/26 04:36:34;;;;;;;42.08;24.90;;;;;;;1.08;100.00;100191.86;1687824;84;21227;-84
2022/02/26 04:39:40;;;;;;;41.20;25.35;;;;;;;1.08;100.00;100193.20;1687181;85;22073;-84
2022/02/26 04:42:46;;;;;;;37.08;24.05;;;;;;;1.05;100.00;100202.89;1686791;83;21338;-82
2022/02/26 04:45:51;;;;;;;43.48;24.90;;;;;;;1.04;100.00;100209.27;1688017;85;21157;-79
2022/02/26 04:48:57;;;;;;;42.00;24.43;;;;;;;1.04;100.00;100205.23;1687950;85;21230;-84
2022/02/26 04:52:01;;;;;;;43.20;27.05;;;;;;;1.04;100.00;100211.96;1687636;83;21288;-84
2022/02/26 04:55:07;;;;;;;40.45;24.75;;;;;;;1.05;100.00;100214.16;1688972;83;21309;-76
2022/02/26 04:58:12;;;;;;;42.23;24.92;;;;;;;1.08;100.00;100220.15;1693206;83;21219;-80
2022/02/26 05:01:17;;;;;;;40.63;25.10;;;;;;;1.10;100.00;100216.01;1693271;83;21176;-77
2022/02/26 05:04:23;;;;;;;38.15;23.77;;;;;;;1.10;100.00;100207.44;1693348;85;21290;-84
2022/02/26 05:07:30;;;;;;;40.48;25.35;;;;;;;1.13;100.00;100216.64;1693280;83;21240;-84
2022/02/26 05:10:35;;;;;;;40.52;24.75;;;;;;;1.12;100.00;100216.24;1693150;85;21247;-76
2022/02/26 05:13:41;;;;;;;41.18;24.77;;;;;;;1.17;100.00;100218.09;1691887;84;21168;-76
2022/02/26 05:16:47;;;;;;;40.38;22.25;;;;;;;1.20;100.00;100215.66;1693211;83;21248;-77
2022/02/26 05:19:51;;;;;;;40.40;24.80;;;;;;;1.22;100.00;100213.23;1693260;85;21877;-76
2022/02/26 05:22:56;;;;;;;40.95;25.43;;;;;;;1.23;100.00;100216.79;1693274;83;21211;-76
2022/02/26 05:26:02;;;;;;;36.28;22.02;;;;;;;1.23;100.00;100226.22;1693124;85;21358;-84
2022/02/26 05:29:07;;;;;;;41.88;25.43;;;;;;;1.23;100.00;100232.46;1693096;85;21777;-79
2022/02/26 05:32:15;;;;;;;39.27;24.77;;;;;;;1.21;100.00;100237.09;1691753;83;21310;-76
2022/02/26 05:35:20;;;;;;;46.95;25.30;;;;;;;1.22;100.00;100237.95;1693191;85;21281;-84
2022/02/26 05:38:25;;;;;;;42.35;25.12;;;;;;;1.22;100.00;100243.34;1693167;83;21218;-76
2022/02/26 05:41:30;;;;;;;46.25;25.50;;;;;;;1.20;100.00;100242.12;1692974;83;21195;-76
2022/02/26 05:44:35;;;;;;;45.55;26.90;;;;;;;1.21;100.00;100241.13;1693305;85;21275;-83
2022/02/26 05:47:42;;;;;;;44.75;27.02;;;;;;;1.21;100.00;100251.05;1693282;83;21223;-83
2022/02/26 05:50:46;;;;;;;48.00;26.45;;;;;;;1.21;100.00;100253.26;1693289;85;21287;-75
2022/02/26 05:53:53;;;;;;;57.23;34.00;;;;;;;1.23;100.00;100258.06;1693361;85;21790;-76
2022/02/26 05:56:58;;;;;;;50.33;28.38;;;;;;;1.22;100.00;100260.84;1689572;83;21335;-84
2022/02/26 06:00:05;;;;;;;51.23;30.02;;;;;;;1.22;100.00;100264.44;1678303;85;21304;-75
2022/02/26 06:03:10;;;;;;;58.52;32.38;;;;;;;1.21;100.00;100264.03;1677144;84;21682;-76
2022/02/26 06:06:16;;;;;;;51.60;27.90;;;;;;;1.22;100.00;100275.20;1678337;84;21189;-76
2022/02/26 06:09:21;;;;;;;63.52;35.48;;;;;;;1.24;100.00;100281.33;1678309;85;21893;-84
2022/02/26 06:12:28;;;;;;;50.20;27.90;;;;;;;1.25;100.00;100287.57;1677760;84;21842;-76
2022/02/26 06:15:33;;;;;;;54.05;30.85;;;;;;;1.24;100.00;100283.17;1678550;85;21177;-76
2022/02/26 06:18:39;;;;;;;63.90;36.48;;;;;;;1.24;100.00;100282.67;1677097;85;21181;-84
2022/02/26 06:21:46;;;;;;;63.55;35.90;;;;;;;1.24;100.00;100284.52;1678418;84;21247;-84
2022/02/26 06:24:53;;;;;;;55.08;31.90;;;;;;;1.25;100.00;100287.08;1678463;85;21717;-83
2022/02/26 06:27:58;;;;;;;56.13;32.80;;;;;;;1.33;100.00;100296.42;1678294;84;21850;-84
2022/02/26 06:31:02;;;;;;;58.58;33.58;;;;;;;1.39;100.00;100300.84;1678412;85;21311;-76
2022/02/26 06:34:07;;;;;;;50.00;28.52;;;;;;;1.45;100.00;100311.64;1678269;85;21374;-84
2022/02/26 06:37:13;;;;;;;49.77;27.90;;;;;;;1.50;100.00;100316.19;1677761;84;21818;-76
2022/02/26 06:40:19;;;;;;;47.35;27.45;;;;;;;1.52;100.00;100311.55;1678258;85;21213;-83
2022/02/26 06:43:25;;;;;;;48.70;25.95;;;;;;;1.49;100.00;100312.63;1676826;84;21368;-76
2022/02/26 06:46:29;;;;;;;46.10;27.45;;;;;;;1.46;100.00;100318.28;1676993;84;21324;-84
2022/02/26 06:49:36;;;;;;;47.65;27.70;;;;;;;1.50;100.00;100322.43;1677108;85;21613;-77
2022/02/26 06:52:42;;;;;;;50.63;27.77;;;;;;;1.53;100.00;100326.74;1677380;84;21196;-77
2022/02/26 06:55:48;;;;;;;49.45;27.90;;;;;;;1.57;100.00;100340.36;1676816;85;21869;-77
2022/02/26 06:58:54;;;;;;;52.53;25.92;;;;;;;1.56;100.00;100327.86;1683329;85;21318;-85
2022/02/26 07:02:01;;;;;;;70.03;41.88;;;;;;;1.56;100.00;100334.61;1687356;83;21215;-76
2022/02/26 07:05:07;;;;;;;56.33;32.30;;;;;;;1.58;100.00;100339.38;1687710;85;21322;-85
2022/02/26 07:08:14;;;;;;;55.95;30.57;;;;;;;1.63;100.00;100343.92;1686430;84;21394;-77
2022/02/26 07:11:18;;;;;;;45.30;25.62;;;;;;;1.66;100.00;100350.44;1687592;84;21927;-77
2022/02/26 07:14:24;;;;;;;49.67;28.62;;;;;;;1.68;100.00;100344.42;1686435;85;21330;-85
2022/02/26 07:17:30;;;;;;;55.65;32.63;;;;;;;1.70;100.00;100342.98;1686531;84;21322;-75
2022/02/26 07:20:35;;;;;;;57.53;32.25;;;;;;;1.70;100.00;100341.63;1687885;85;21285;-75
2022/02/26 07:23:41;;;;;;;51.73;29.35;;;;;;;1.73;100.00;100344.92;1687316;85;21298;-82
2022/02/26 07:26:46;;;;;;;58.48;31.70;;;;;;;1.79;100.00;100344.47;1687846;83;21860;-76
2022/02/26 07:29:52;;;;;;;52.98;29.70;;;;;;;1.83;100.00;100350.95;1687780;85;21342;-83
2022/02/26 07:32:57;;;;;;;48.45;27.35;;;;;;;1.87;100.00;100347.05;1686750;83;21177;-84
2022/02/26 07:36:03;;;;;;;52.83;30.17;;;;;;;1.89;100.00;100340.56;1687861;85;21204;-84
2022/02/26 07:39:11;;;;;;;53.80;30.68;;;;;;;1.88;100.00;100344.70;1687813;85;21292;-76
2022/02/26 07:42:16;;;;;;;51.28;28.07;;;;;;;1.89;100.00;100350.50;1688012;83;21290;-84
2022/02/26 07:45:21;;;;;;;47.73;26.37;;;;;;;1.92;100.00;100358.33;1687859;85;21291;-76
2022/02/26 07:48:26;;;;;;;45.20;25.45;;;;;;;1.94;100.00;100372.58;1688043;83;21200;-76
2022/02/26 07:51:32;;;;;;;44.50;24.98;;;;;;;1.93;100.00;100363.63;1688035;83;21882;-84
2022/02/26 07:54:38;;;;;;;42.43;24.63;;;;;;;1.97;100.00;100365.57;1688080;85;21201;-76
2022/02/26 07:57:43;;;;;;;44.42;25.60;;;;;;;2.00;100.00;100365.34;1686965;83;21750;-78
2022/02/26 08:00:48;;;;;;;40.15;25.48;;;;;;;2.08;100.00;100364.26;1687701;84;21801;-84
2022/02/26 08:03:53;;;;;;;40.67;23.92;;;;;;;2.16;100.00;100368.53;1687800;85;21212;-84
2022/02/26 08:06:58;;;;;;;42.30;24.02;;;;;;;2.23;100.00;100365.73;1686721;83;21731;-84
2022/02/26 08:10:05;;;;;;;39.23;23.38;;;;;;;2.28;100.00;100371.63;1687898;85;21319;-85
2022/02/26 08:13:12;;;;;;;41.15;23.85;;;;;;;2.29;100.00;100370.64;1687196;83;21177;-79
2022/02/26 08:16:18;;;;;;;38.80;23.05;;;;;;;2.32;100.00;100363.30;1687950;83;21233;-77
2022/02/26 08:19:24;;;;;;;42.78;24.32;;;;;;;2.36;100.00;100355.33;1687953;85;21283;-80
2022/02/26 08:22:29;;;;;;;37.73;24.02;;;;;;;2.42;100.00;100371.02;1687880;83;21331;-76
2022/02/26 08:25:36;;;;;;;39.08;22.77;;;;;;;2.43;100.00;100361.44;1688014;85;21339;-76
2022/02/26 08:28:41;;;;;;;36.13;22.40;;;;;;;2.43;100.00;100364.64;1687858;85;21853;-76
2022/02/26 08:31:47;;;;;;;35.50;22.93;;;;;;;2.41;100.00;100358.02;1687907;83;21330;-76
2022/02/26 08:34:53;;;;;;;40.17;23.20;;;;;;;2.41;100.00;100367.96;1687973;85;21331;-84
2022/02/26 08:37:59;;;;;;;37.73;23.05;;;;;;;2.36;100.00;100368.33;1686818;84;21212;-84
2022/02/26 08:41:05;;;;;;;33.70;20.23;;;;;;;2.35;100.00;100369.28;1687910;85;21252;-84
2022/02/26 08:44:12;;;;;;;31.90;20.75;;;;;;;2.32;100.00;100369.55;1686937;85;21840;-79
2022/02/26 08:47:18;;;;;;;34.10;21.20;;;;;;;2.28;100.00;100375.67;1687497;84;21954;-75
2022/02/26 08:50:24;;;;;;;35.30;21.85;;;;;;;2.25;100.00;100387.20;1686693;84;21192;-76
2022/02/26 08:53:30;;;;;;;32.53;19.60;;;;;;;2.22;100.00;100391.02;1686676;84;21310;-76
2022/02/26 08:56:34;;;;;;;26.20;17.45;;;;;;;2.19;100.00;100396.64;1688009;83;21382;-84
2022/02/26 08:59:39;;;;;;;25.77;16.95;;;;;;;2.17;100.00;100395.92;1689146;83;21839;-84
2022/02/26 09:02:45;;;;;;;24.85;15.68;;;;;;;2.17;100.00;100395.06;1687906;83;21856;-77
2022/02/26 09:05:53;;;;;;;35.33;21.02;;;;;;;2.17;100.00;100399.11;1687024;85;21307;-84
2022/02/26 09:08:59;;;;;;;32.35;20.70;;;;;;;2.15;100.00;100396.52;1687940;85;21256;-75
2022/02/26 09:12:04;;;;;;;34.75;20.43;;;;;;;2.12;100.00;100403.98;1687387;84;21738;-85
2022/02/26 09:15:11;;;;;;;31.37;19.00;;;;;;;2.15;100.00;100399.20;1686469;85;21754;-82
2022/02/26 09:18:17;;;;;;;29.98;19.27;;;;;;;2.18;100.00;100402.17;1687909;83;21287;-82
2022/02/26 09:21:22;;;;;;;29.60;18.45;;;;;;;2.21;100.00;100400.09;1688000;83;21181;-77
2022/02/26 09:24:27;;;;;;;28.87;17.55;;;;;;;2.24;100.00;100397.14;1687673;85;21299;-77
2022/02/26 09:27:31;;;;;;;28.17;17.05;;;;;;;2.29;100.00;100403.03;1687146;83;21931;-77
2022/02/26 09:30:37;;;;;;;28.40;16.55;;;;;;;2.33;100.00;100391.51;1687829;85;21343;-77
2022/02/26 09:33:42;;;;;;;28.17;17.52;;;;;;;2.32;100.00;100388.94;1687978;85;21323;-80
2022/02/26 09:36:50;;;;;;;29.77;16.65;;;;;;;2.32;100.00;100404.64;1687970;83;21322;-77
2022/02/26 09:39:58;;;;;;;21.77;14.35;;;;;;;2.34;100.00;100404.02;1688008;85;21719;-77
2022/02/26 09:43:03;;;;;;;33.67;18.07;;;;;;;2.40;100.00;100407.60;1687809;83;21370;-77
2022/02/26 09:46:12;;;;;;;29.92;17.50;;;;;;;2.41;100.00;100415.20;1687997;84;21298;-85
2022/02/26 09:49:17;;;;;;;29.23;17.57;;;;;;;2.41;100.00;100411.16;1687781;85;21373;-78
2022/02/26 09:52:25;;;;;;;28.65;17.10;;;;;;;2.45;100.00;100413.50;1687987;83;21848;-85
2022/02/26 09:55:31;;;;;;;35.48;18.37;;;;;;;2.52;100.00;100403.91;1687717;85;21312;-84
2022/02/26 09:58:36;;;;;;;25.68;17.15;;;;;;;2.55;100.00;100407.72;1687965;85;22127;-75
2022/02/26 10:01:42;;;;;;;26.07;15.32;;;;;;;2.54;100.00;100413.22;1688684;84;21334;-75
2022/02/26 10:05:02;;;;;;;24.65;15.08;;;;;;;2.53;100.00;100412.38;1687293;85;21781;-74
2022/02/26 10:08:07;;;;;;;26.23;15.35;;;;;;;2.54;100.00;100415.92;1686823;84;21326;-76
2022/02/26 10:11:14;;;;;;;25.35;16.97;;;;;;;2.56;100.00;100420.73;1687876;83;21338;-76
2022/02/26 10:14:24;;;;;;;29.32;18.57;;;;;;;2.55;100.00;100419.02;1687927;85;21295;-76
2022/02/26 10:17:36;;;;;;;27.50;18.15;;;;;;;2.51;100.00;100425.64;1688042;83;21208;-84
2022/02/26 10:20:41;;;;;;;29.57;19.00;;;;;;;2.51;100.00;100434.59;1687835;85;21311;-76
2022/02/26 10:23:53;;;;;;;28.00;17.98;;;;;;;2.48;100.00;100443.42;1688053;85;21291;-84
2022/02/26 10:27:05;;;;;;;27.20;17.25;;;;;;;2.46;100.00;100439.51;1687449;83;21867;-76
2022/02/26 10:30:11;;;;;;;28.15;18.23;;;;;;;2.47;100.00;100430.91;1688009;85;21287;-76
2022/02/26 10:33:24;;;;;;;30.60;20.48;;;;;;;2.48;100.00;100439.38;1686817;83;21330;-84
2022/02/26 10:36:33;;;;;;;30.85;20.55;;;;;;;2.42;100.00;100447.97;1686909;83;21220;-75
2022/02/26 10:39:38;;;;;;;33.63;21.95;;;;;;;2.40;100.00;100456.66;1688058;85;21291;-84
2022/02/26 10:42:45;;;;;;;39.00;23.45;;;;;;;2.36;100.00;100447.97;1687880;83;21240;-76
2022/02/26 10:45:50;;;;;;;31.70;21.25;;;;;;;2.32;100.00;100449.67;1659899;86;21302;-83
2022/02/26 10:48:57;;;;;;;40.90;22.75;;;;;;;2.30;100.00;100460.08;1659803;86;21315;-75
2022/02/26 10:52:02;;;;;;;33.10;21.80;;;;;;;2.32;100.00;100458.63;1659928;85;21885;-76
2022/02/26 10:55:07;;;;;;;34.50;22.45;;;;;;;2.37;100.00;100459.62;1659847;86;21189;-76
2022/02/26 10:58:14;;;;;;;34.53;22.32;;;;;;;2.42;100.00;100447.47;1659847;85;21315;-84
2022/02/26 11:01:22;;;;;;;38.23;20.40;;;;;;;2.50;100.00;100453.14;1659844;85;21315;-76
2022/02/26 11:04:28;;;;;;;31.60;21.40;;;;;;;2.56;100.00;100449.09;1659998;86;21310;-83
2022/02/26 11:07:34;;;;;;;30.95;20.10;;;;;;;2.59;100.00;100453.37;1658485;85;21295;-76
2022/02/26 11:10:39;;;;;;;28.07;18.20;;;;;;;2.66;100.00;100458.17;1659678;86;21311;-84
2022/02/26 11:13:46;;;;;;;33.23;20.05;;;;;;;2.71;100.00;100468.11;1658308;86;21196;-84
2022/02/26 11:16:51;;;;;;;24.02;16.70;;;;;;;2.75;100.00;100461.98;1659153;85;21327;-76
2022/02/26 11:19:57;;;;;;;25.43;16.02;;;;;;;2.79;100.00;100456.70;1645416;86;21307;-81
2022/02/26 11:23:05;;;;;;;19.20;13.08;;;;;;;2.85;100.00;100468.86;1660323;85;21909;-76
2022/02/26 11:26:11;;;;;;;19.17;13.65;;;;;;;2.83;99.05;100470.34;1660408;85;21232;-76
2022/02/26 11:29:18;;;;;;;26.02;16.85;;;;;;;2.77;98.22;100490.58;1660282;86;21193;-84
2022/02/26 11:32:25;;;;;;;30.37;19.00;;;;;;;2.77;98.64;100485.67;1659029;85;21725;-83
2022/02/26 11:35:32;;;;;;;19.42;13.55;;;;;;;2.80;98.84;100498.94;1660198;86;21316;-83
2022/02/26 11:38:41;;;;;;;20.10;13.32;;;;;;;2.86;99.05;100497.59;1660318;86;21361;-81
2022/02/26 11:41:48;;;;;;;16.87;12.30;;;;;;;2.95;98.69;100502.26;1646133;85;21839;-75
2022/02/26 11:45:04;;;;;;;25.50;16.80;;;;;;;3.00;98.29;100502.75;1660376;86;21180;-79
2022/02/26 11:48:12;;;;;;;20.25;13.10;;;;;;;3.07;98.41;100506.69;1660300;85;21331;-83
2022/02/26 11:51:19;;;;;;;16.87;12.23;;;;;;;3.11;98.15;100507.31;1660265;85;21901;-76
2022/02/26 11:54:26;;;;;;;17.25;12.33;;;;;;;3.10;97.45;100495.61;1660372;86;21299;-75
2022/02/26 11:57:31;;;;;;;16.60;12.03;;;;;;;3.11;97.54;100493.30;1660249;85;21311;-84
2022/02/26 12:00:40;;;;;;;17.30;12.28;;;;;;;3.15;97.52;100489.34;1643059;86;21831;-76
2022/02/26 12:03:55;;;;;;;15.80;11.78;;;;;;;3.20;97.09;100491.20;1657800;85;21787;-81
2022/02/26 12:07:04;;;;;;;15.90;10.70;;;;;;;3.27;96.79;100488.35;1650551;85;21319;-75
2022/02/26 12:10:17;;;;;;;14.80;10.60;;;;;;;3.35;96.20;100500.41;1649609;87;21324;-83
2022/02/26 12:13:39;;;;;;;16.55;12.05;;;;;;;3.43;95.74;100491.14;1649659;85;21204;-76
2022/02/26 12:16:45;;;;;;;15.05;11.08;;;;;;;3.49;95.15;100493.37;1678456;84;21212;-85
2022/02/26 12:19:55;;;;;;;19.42;13.08;;;;;;;3.48;95.44;100489.81;1677058;85;21315;-84
2022/02/26 12:23:00;;;;;;;34.92;21.33;;;;;;;3.44;94.86;100505.91;1677249;85;21188;-84
2022/02/26 12:26:11;;;;;;;18.62;12.78;;;;;;;3.35;95.01;100501.75;1676914;85;21287;-84
2022/02/26 12:29:16;;;;;;;22.48;13.83;;;;;;;3.25;94.92;100501.16;1678467;85;21293;-76
2022/02/26 12:32:36;;;;;;;17.60;13.08;;;;;;;3.18;95.11;100503.11;1678290;84;21874;-76
2022/02/26 12:35:45;;;;;;;14.20;10.82;;;;;;;3.17;95.74;100508.16;1678210;85;21302;-84
2022/02/26 12:39:02;;;;;;;26.37;16.37;;;;;;;3.14;95.97;100528.17;1676871;85;21391;-76
2022/02/26 12:42:06;;;;;;;14.73;11.28;;;;;;;3.12;95.79;100516.64;1677894;85;21741;-77
2022/02/26 12:45:13;;;;;;;15.45;10.38;;;;;;;3.13;96.11;100521.05;1677789;85;21229;-86
2022/02/26 12:48:12;;;;;;;23.35;13.53;;;;;;;3.17;95.83;100528.43;1676396;85;21236;-85
2022/02/26 12:51:18;;;;;;;26.95;17.73;;;;;;;3.21;95.72;100528.06;1677747;85;21304;-82
2022/02/26 12:54:23;;;;;;;16.20;11.40;;;;;;;3.22;95.13;100523.02;1678258;85;21300;-83
2022/02/26 12:57:29;;;;;;;12.70;9.03;;;;;;;3.25;94.82;100518.72;1658224;85;21789;-76
2022/02/26 13:00:37;;;;;;;11.20;9.08;;;;;;;3.33;95.12;100522.99;1678514;85;21336;-84
2022/02/26 13:03:42;;;;;;;12.37;9.40;;;;;;;3.41;95.10;100525.08;1678516;85;21218;-84
2022/02/26 13:07:09;;;;;;;12.43;8.55;;;;;;;3.51;95.44;100529.25;1678362;85;21316;-76
2022/02/26 13:10:16;;;;;;;12.18;8.75;;;;;;;3.60;95.20;100536.61;1678489;85;21283;-82
2022/02/26 13:13:23;;;;;;;11.85;8.80;;;;;;;3.65;94.36;100538.44;1678408;85;21346;-77
2022/02/26 13:16:30;;;;;;;18.02;10.18;;;;;;;3.64;93.50;100538.08;1678132;85;21245;-76
2022/02/26 13:19:37;;;;;;;13.32;9.78;;;;;;;3.61;93.31;100552.34;1678461;85;21343;-84
2022/02/26 13:22:59;;;;;;;14.60;10.15;;;;;;;3.56;93.20;100568.45;1643246;87;21849;-84
2022/02/26 13:26:05;;;;;;;13.68;10.23;;;;;;;3.56;93.16;100562.19;1624834;88;21283;-84
2022/02/26 13:29:19;;;;;;;15.35;10.53;;;;;;;3.59;92.80;100576.82;1624754;88;21343;-77
2022/02/26 13:32:30;;;;;;;13.45;9.98;;;;;;;3.63;92.63;100567.48;1615640;89;21853;-84
2022/02/26 13:35:37;;;;;;;12.50;8.88;;;;;;;3.66;92.55;100569.91;1643142;87;21356;-84
2022/02/26 13:38:42;;;;;;;11.45;7.85;;;;;;;3.66;91.77;100568.55;1642976;87;21258;-84
2022/02/26 13:41:50;;;;;;;9.98;7.33;;;;;;;3.68;91.42;100568.45;1643154;87;21739;-84
2022/02/26 13:45:10;;;;;;;10.80;8.10;;;;;;;3.66;90.75;100579.37;1643264;87;21364;-83
2022/02/26 13:48:24;;;;;;;9.18;6.92;;;;;;;3.65;90.94;100590.33;1624635;88;21803;-84
2022/02/26 13:51:29;;;;;;;8.38;6.53;;;;;;;3.61;90.12;100582.95;1624818;88;21334;-75
2022/02/26 13:54:34;;;;;;;9.23;6.65;;;;;;;3.60;90.13;100586.65;1624552;88;21315;-78
2022/02/26 13:57:50;;;;;;;9.03;6.95;;;;;;;3.57;89.80;100589.59;1615594;89;21224;-76
2022/02/26 14:00:56;;;;;;;8.40;6.55;;;;;;;3.52;89.48;100590.46;1631185;88;21299;-75
2022/02/26 14:04:03;;;;;;;8.30;6.35;;;;;;;3.51;89.65;100600.92;1615606;89;21291;-84
2022/02/26 14:07:08;;;;;;;8.83;7.05;;;;;;;3.53;89.70;100594.41;1628180;86;21314;-84
2022/02/26 14:10:21;;;;;;;7.75;5.90;;;;;;;3.57;89.57;100609.38;1645225;87;21167;-76